Time;durP1;ratioP1;P1;durP2;ratioP2;P2;SDS_P1;SDS_P2;PMS_P1;PMS_P2;Temp;Humidity;BMP_temperature;BMP_pressure;BME280_temperature;BME280_humidity;BME280_pressure;Samples;Min_cycle;Max_cycle;Signal;HPM_P1;HPM_P2
2022/12/31 00:02:04;;;;;;;12.75;2.88;;;11.10;99.90;;;;;;5059798;28;20053;-69
2022/12/31 00:04:30;;;;;;;13.63;3.28;;;11.10;99.90;;;;;;5051847;28;20099;-64
2022/12/31 00:06:55;;;;;;;14.68;3.75;;;11.10;99.90;;;;;;5044197;28;20052;-64
2022/12/31 00:09:21;;;;;;;14.88;2.90;;;11.20;99.90;;;;;;5051231;28;20120;-65
2022/12/31 00:11:46;;;;;;;17.70;3.50;;;11.20;99.90;;;;;;5049416;28;20105;-64
2022/12/31 00:14:12;;;;;;;10.13;3.35;;;11.20;99.90;;;;;;5049630;28;20120;-65
2022/12/31 00:16:40;;;;;;;14.57;3.55;;;11.30;99.90;;;;;;5063826;28;20052;-64
2022/12/31 00:19:09;;;;;;;14.57;3.60;;;11.20;99.90;;;;;;5071647;28;20470;-66
2022/12/31 00:21:35;;;;;;;17.25;3.70;;;11.30;99.90;;;;;;5045299;28;20051;-65
2022/12/31 00:24:02;;;;;;;12.32;3.08;;;11.20;99.90;;;;;;5034074;28;20057;-65
2022/12/31 00:26:30;;;;;;;19.02;3.92;;;11.20;99.90;;;;;;5033204;28;20053;-68
2022/12/31 00:28:57;;;;;;;13.38;3.25;;;11.20;99.90;;;;;;5082658;28;20037;-65
2022/12/31 00:31:34;;;;;;;11.05;3.88;;;11.20;99.90;;;;;;5041142;28;20061;-64
2022/12/31 00:34:00;;;;;;;18.50;4.53;;;11.20;99.90;;;;;;5033826;28;20045;-64
2022/12/31 00:36:29;;;;;;;12.73;3.95;;;11.30;99.90;;;;;;5038062;28;20683;-63
2022/12/31 00:38:56;;;;;;;16.05;4.32;;;11.30;99.90;;;;;;5037435;28;20051;-65
2022/12/31 00:41:22;;;;;;;19.05;4.95;;;11.30;99.90;;;;;;5072800;28;20053;-66
2022/12/31 00:43:49;;;;;;;17.73;4.15;;;11.30;99.90;;;;;;5048544;28;20092;-68
2022/12/31 00:46:15;;;;;;;16.70;4.68;;;11.30;99.90;;;;;;5032625;28;20561;-65
2022/12/31 00:48:41;;;;;;;20.20;4.78;;;11.30;99.90;;;;;;5034387;28;20407;-64
2022/12/31 00:51:10;;;;;;;16.77;4.05;;;11.30;99.90;;;;;;5041194;28;20101;-72
2022/12/31 00:53:36;;;;;;;17.02;4.30;;;11.30;99.90;;;;;;5059780;28;20044;-65
2022/12/31 00:56:23;;;;;;;16.52;3.88;;;11.30;99.90;;;;;;5040209;28;20075;-65
2022/12/31 00:58:49;;;;;;;20.75;4.63;;;11.30;99.90;;;;;;5080893;28;20056;-64
2022/12/31 01:01:30;;;;;;;21.25;5.53;;;11.30;99.90;;;;;;5040616;28;20091;-65
2022/12/31 01:04:04;;;;;;;18.15;3.90;;;11.30;99.90;;;;;;5056498;28;20098;-65
2022/12/31 01:06:30;;;;;;;31.98;4.80;;;11.20;99.90;;;;;;5041158;28;20590;-65
2022/12/31 01:08:56;;;;;;;16.77;5.07;;;11.30;99.90;;;;;;5054243;28;20040;-65
2022/12/31 01:11:23;;;;;;;27.05;4.88;;;11.30;99.90;;;;;;5053612;28;20460;-65
2022/12/31 01:13:58;;;;;;;16.95;4.30;;;11.30;99.90;;;;;;5067811;28;20071;-65
2022/12/31 01:16:31;;;;;;;16.48;4.53;;;11.30;99.90;;;;;;5045971;28;20128;-65
2022/12/31 01:19:02;;;;;;;18.83;4.75;;;11.20;99.90;;;;;;5052737;28;20063;-65
2022/12/31 01:21:28;;;;;;;20.88;5.43;;;11.30;99.90;;;;;;5053466;28;20049;-64
2022/12/31 01:23:54;;;;;;;23.98;4.90;;;11.20;99.90;;;;;;5054621;28;20049;-64
2022/12/31 01:26:20;;;;;;;17.30;4.55;;;11.30;99.90;;;;;;5053967;28;20095;-64
2022/12/31 01:28:46;;;;;;;19.13;4.70;;;11.30;99.90;;;;;;5053567;28;20099;-65
2022/12/31 01:31:15;;;;;;;17.27;4.82;;;11.30;99.90;;;;;;5053564;28;20053;-71
2022/12/31 01:33:42;;;;;;;18.33;4.88;;;11.30;99.90;;;;;;5054473;28;20056;-66
2022/12/31 01:36:11;;;;;;;21.90;5.07;;;11.20;99.90;;;;;;5053745;28;20052;-65
2022/12/31 01:38:39;;;;;;;22.08;5.03;;;11.30;99.90;;;;;;5053003;28;20036;-64
2022/12/31 01:41:04;;;;;;;20.35;4.43;;;11.30;99.90;;;;;;5035666;28;20056;-65
2022/12/31 01:43:47;;;;;;;16.02;4.60;;;11.20;99.90;;;;;;5054419;28;20048;-64
2022/12/31 01:46:28;;;;;;;22.10;5.00;;;11.20;99.90;;;;;;5052934;28;20486;-64
2022/12/31 01:48:58;;;;;;;16.90;3.63;;;11.20;99.90;;;;;;5053318;28;20037;-64
2022/12/31 01:51:27;;;;;;;21.40;5.15;;;11.20;99.90;;;;;;5052770;28;20052;-65
2022/12/31 01:53:53;;;;;;;18.52;5.13;;;11.30;99.90;;;;;;5054335;28;20045;-64
2022/12/31 01:56:21;;;;;;;14.98;4.80;;;11.20;99.90;;;;;;5053214;28;20133;-64
2022/12/31 01:58:50;;;;;;;10.13;4.10;;;11.20;99.90;;;;;;5060170;28;20056;-64
2022/12/31 02:01:23;;;;;;;14.50;4.20;;;11.20;99.90;;;;;;5049969;28;20057;-72
2022/12/31 02:03:50;;;;;;;13.85;4.82;;;11.20;99.90;;;;;;5052409;28;20049;-64
2022/12/31 02:06:23;;;;;;;16.63;4.22;;;11.20;99.90;;;;;;5058138;28;20437;-65
2022/12/31 02:08:49;;;;;;;17.65;4.57;;;11.20;99.90;;;;;;5058752;28;20379;-63
2022/12/31 02:11:41;;;;;;;15.85;5.20;;;11.20;99.90;;;;;;5052837;28;20076;-65
2022/12/31 02:14:17;;;;;;;11.70;4.53;;;11.20;99.90;;;;;;5051769;28;20053;-64
2022/12/31 02:16:54;;;;;;;10.82;4.50;;;11.20;99.90;;;;;;5065395;28;20201;-64
2022/12/31 02:19:56;;;;;;;14.45;4.80;;;11.20;99.90;;;;;;5059077;28;20430;-71
2022/12/31 02:22:49;;;;;;;15.57;5.13;;;11.20;99.90;;;;;;5039158;28;20084;-71
2022/12/31 02:25:47;;;;;;;10.55;4.10;;;11.20;99.90;;;;;;5054469;28;20052;-64
2022/12/31 02:28:16;;;;;;;12.00;4.38;;;11.10;99.90;;;;;;5064243;28;20102;-63
2022/12/31 02:30:49;;;;;;;14.07;4.05;;;11.20;99.90;;;;;;5038437;28;20043;-63
2022/12/31 02:33:42;;;;;;;11.95;4.07;;;11.20;99.90;;;;;;5052647;28;20053;-64
2022/12/31 02:36:16;;;;;;;14.40;3.95;;;11.30;99.90;;;;;;5041821;28;20465;-64
2022/12/31 02:38:46;;;;;;;13.45;5.00;;;11.30;99.90;;;;;;5055307;28;20036;-64
2022/12/31 02:41:48;;;;;;;11.25;4.45;;;11.30;99.90;;;;;;5052148;28;20557;-64
2022/12/31 02:43:59;;;;;;;16.00;5.43;;;11.30;99.90;;;;;;5057827;28;20068;-64
2022/12/31 02:46:43;;;;;;;9.52;4.30;;;11.20;99.90;;;;;;5062384;28;20242;-66
2022/12/31 02:49:22;;;;;;;13.75;4.47;;;11.20;99.90;;;;;;5057745;28;20049;-63
2022/12/31 02:51:58;;;;;;;11.90;4.47;;;11.30;99.90;;;;;;5059415;28;20047;-64
2022/12/31 02:54:26;;;;;;;14.77;4.47;;;11.30;99.90;;;;;;5052637;28;20511;-73
2022/12/31 02:57:23;;;;;;;14.05;4.45;;;11.30;99.90;;;;;;5051868;28;20179;-65
2022/12/31 03:02:45;;;;;;;14.93;4.90;;;11.30;99.90;;;;;;5050906;28;20045;-64
2022/12/31 03:05:14;;;;;;;11.48;3.70;;;11.30;99.90;;;;;;5051952;28;20076;-64
2022/12/31 03:07:41;;;;;;;10.63;4.25;;;11.20;99.90;;;;;;5050110;28;20068;-66
2022/12/31 03:10:08;;;;;;;9.52;4.22;;;11.30;99.90;;;;;;5052425;28;20041;-65
2022/12/31 03:12:46;;;;;;;9.18;3.20;;;11.20;99.90;;;;;;5060290;28;20507;-64
2022/12/31 03:15:21;;;;;;;8.65;3.38;;;11.20;99.90;;;;;;5037203;28;20084;-66
2022/12/31 03:18:04;;;;;;;7.68;2.65;;;11.20;99.90;;;;;;5045357;28;20049;-64
2022/12/31 03:23:31;;;;;;;9.07;3.17;;;11.20;99.90;;;;;;5053575;28;20382;-64
2022/12/31 03:25:58;;;;;;;10.15;2.95;;;11.20;99.90;;;;;;5052946;28;20132;-65
2022/12/31 03:28:29;;;;;;;7.50;3.33;;;11.20;99.90;;;;;;5051376;28;20041;-64
2022/12/31 03:31:00;;;;;;;11.05;3.15;;;11.20;99.90;;;;;;5053193;28;20045;-64
2022/12/31 03:33:30;;;;;;;8.18;2.90;;;11.10;99.90;;;;;;5053810;28;20048;-64
2022/12/31 03:35:56;;;;;;;6.70;2.97;;;11.20;99.90;;;;;;5051404;28;20048;-64
2022/12/31 03:38:22;;;;;;;8.43;2.70;;;11.10;99.90;;;;;;5067298;28;20424;-64
2022/12/31 03:40:51;;;;;;;6.82;2.58;;;11.10;99.90;;;;;;5050527;28;20513;-64
2022/12/31 03:43:18;;;;;;;6.97;2.40;;;11.10;99.90;;;;;;5053434;28;20049;-65
2022/12/31 03:45:47;;;;;;;9.73;2.55;;;11.10;99.90;;;;;;5050755;28;20056;-64
2022/12/31 03:48:12;;;;;;;7.38;2.38;;;11.10;99.90;;;;;;5060290;28;20041;-64
2022/12/31 03:50:38;;;;;;;9.15;2.33;;;11.00;99.90;;;;;;5051167;28;20041;-66
2022/12/31 03:53:04;;;;;;;8.95;2.03;;;11.00;99.90;;;;;;5061559;28;20046;-65
2022/12/31 03:55:30;;;;;;;9.20;2.88;;;11.00;99.90;;;;;;5053806;28;20044;-64
2022/12/31 03:57:56;;;;;;;6.28;2.40;;;11.00;99.90;;;;;;5052957;28;20121;-65
2022/12/31 04:00:22;;;;;;;6.93;2.00;;;11.00;99.90;;;;;;5055615;28;20485;-66
2022/12/31 04:02:48;;;;;;;11.93;2.28;;;11.00;99.90;;;;;;5033416;28;20044;-64
2022/12/31 04:05:15;;;;;;;7.78;2.08;;;10.90;99.90;;;;;;5076365;28;20136;-64
2022/12/31 04:07:41;;;;;;;7.13;1.80;;;10.90;99.90;;;;;;5049039;28;20045;-65
2022/12/31 04:10:09;;;;;;;4.10;1.70;;;10.90;99.90;;;;;;5057919;28;20466;-64
2022/12/31 04:12:35;;;;;;;6.20;1.90;;;10.80;99.90;;;;;;5056727;28;20052;-72
2022/12/31 04:15:01;;;;;;;6.72;1.70;;;10.90;99.90;;;;;;5053936;28;20098;-64
2022/12/31 04:17:27;;;;;;;5.07;1.45;;;10.90;99.90;;;;;;5059322;28;20044;-64
2022/12/31 04:19:53;;;;;;;5.63;1.52;;;10.90;99.90;;;;;;5059332;28;20040;-65
2022/12/31 04:22:19;;;;;;;6.18;1.60;;;11.00;99.90;;;;;;5050499;28;20080;-64
2022/12/31 04:24:45;;;;;;;7.10;1.63;;;10.90;99.90;;;;;;5045708;28;20121;-64
2022/12/31 04:27:11;;;;;;;6.47;1.67;;;10.80;99.90;;;;;;5056786;28;20399;-66
2022/12/31 04:29:37;;;;;;;9.95;1.80;;;10.90;99.90;;;;;;5057780;28;20090;-73
2022/12/31 04:32:04;;;;;;;7.95;1.90;;;10.80;99.90;;;;;;5050107;28;20053;-65
2022/12/31 04:34:30;;;;;;;6.72;1.42;;;10.80;99.90;;;;;;5040148;28;20258;-65
2022/12/31 04:36:56;;;;;;;5.07;1.42;;;10.80;99.90;;;;;;5047258;28;20128;-64
2022/12/31 04:39:22;;;;;;;4.97;1.40;;;10.80;99.90;;;;;;5052269;28;20053;-65
2022/12/31 04:41:48;;;;;;;3.83;1.58;;;10.80;99.90;;;;;;5053574;28;20045;-65
2022/12/31 04:44:13;;;;;;;5.88;2.17;;;10.80;99.90;;;;;;5049808;28;20056;-65
2022/12/31 04:46:39;;;;;;;6.07;2.17;;;10.80;99.90;;;;;;5048848;28;20127;-73
2022/12/31 04:49:05;;;;;;;6.57;2.42;;;10.90;99.90;;;;;;5048929;28;20120;-64
2022/12/31 04:51:31;;;;;;;5.28;2.22;;;10.90;99.90;;;;;;5054842;28;20048;-67
2022/12/31 04:53:57;;;;;;;9.20;2.42;;;10.80;99.90;;;;;;5065266;28;20048;-65
2022/12/31 04:56:23;;;;;;;6.97;2.60;;;10.80;99.90;;;;;;5047941;28;20041;-63
2022/12/31 04:58:49;;;;;;;5.07;2.10;;;10.90;99.90;;;;;;5049501;28;20056;-64
2022/12/31 05:01:15;;;;;;;6.10;2.25;;;10.80;99.90;;;;;;5046967;28;20141;-65
2022/12/31 05:03:41;;;;;;;5.72;2.10;;;10.80;99.90;;;;;;5049921;28;20458;-72
2022/12/31 05:06:12;;;;;;;5.40;2.40;;;10.70;99.90;;;;;;5048893;28;20096;-64
2022/12/31 05:08:37;;;;;;;7.07;2.38;;;10.80;99.90;;;;;;5058834;28;20052;-63
2022/12/31 05:11:03;;;;;;;6.28;2.75;;;10.70;99.90;;;;;;5056398;28;20884;-64
2022/12/31 05:13:29;;;;;;;5.65;2.17;;;10.80;99.90;;;;;;5050090;28;20075;-63
2022/12/31 05:15:55;;;;;;;6.53;2.47;;;10.70;99.90;;;;;;5065017;28;20051;-63
2022/12/31 05:18:20;;;;;;;5.50;2.47;;;10.80;99.90;;;;;;5037445;28;20131;-64
2022/12/31 05:20:47;;;;;;;6.40;2.40;;;10.80;99.90;;;;;;5046359;28;20454;-64
2022/12/31 05:23:14;;;;;;;7.68;2.40;;;10.70;99.90;;;;;;5047419;28;20390;-64
2022/12/31 05:25:41;;;;;;;6.07;2.30;;;10.70;99.90;;;;;;5042223;28;20068;-65
2022/12/31 05:28:07;;;;;;;4.97;2.10;;;10.70;99.90;;;;;;5011733;28;20041;-64
2022/12/31 05:30:33;;;;;;;8.65;2.80;;;10.70;99.90;;;;;;5047469;28;20374;-71
2022/12/31 05:32:58;;;;;;;7.75;2.10;;;10.70;99.90;;;;;;5051638;28;20163;-65
2022/12/31 05:35:24;;;;;;;6.97;2.30;;;10.70;99.90;;;;;;5040648;28;20101;-64
2022/12/31 05:37:50;;;;;;;5.38;2.00;;;10.70;99.90;;;;;;5039712;28;20129;-65
2022/12/31 05:40:16;;;;;;;8.00;2.75;;;10.60;99.90;;;;;;5045557;28;20037;-64
2022/12/31 05:42:42;;;;;;;6.93;2.40;;;10.70;99.90;;;;;;5052188;28;20044;-65
2022/12/31 05:45:08;;;;;;;5.28;2.25;;;10.60;99.90;;;;;;5051549;28;21173;-64
2022/12/31 05:47:34;;;;;;;8.30;2.78;;;10.60;99.90;;;;;;5046618;28;20079;-66
2022/12/31 05:49:59;;;;;;;6.68;2.35;;;10.60;99.90;;;;;;5075729;28;20202;-63
2022/12/31 05:52:25;;;;;;;8.45;2.60;;;10.70;99.90;;;;;;5044486;28;20037;-64
2022/12/31 05:54:51;;;;;;;9.95;2.90;;;10.70;99.90;;;;;;5055349;28;20162;-64
2022/12/31 05:57:16;;;;;;;9.88;2.70;;;10.70;99.90;;;;;;5045343;28;20041;-64
2022/12/31 05:59:42;;;;;;;7.05;2.58;;;10.70;99.90;;;;;;5046403;28;20044;-64
2022/12/31 06:02:08;;;;;;;9.13;3.00;;;10.60;99.90;;;;;;5050598;28;20061;-64
2022/12/31 06:04:33;;;;;;;7.55;2.30;;;10.70;99.90;;;;;;5046892;28;20487;-65
2022/12/31 06:06:59;;;;;;;9.27;2.53;;;10.70;99.90;;;;;;5046921;28;20055;-65
2022/12/31 06:09:25;;;;;;;8.23;2.72;;;10.70;99.90;;;;;;5046790;28;20067;-65
2022/12/31 06:11:50;;;;;;;9.98;2.58;;;10.70;99.90;;;;;;5043674;28;20049;-75
2022/12/31 06:14:16;;;;;;;12.45;2.65;;;10.70;99.90;;;;;;5053072;28;20049;-65
2022/12/31 06:16:42;;;;;;;8.43;2.50;;;10.70;99.90;;;;;;5053684;28;20041;-66
2022/12/31 06:19:08;;;;;;;8.70;2.80;;;10.70;99.90;;;;;;5051860;28;20072;-65
2022/12/31 06:21:34;;;;;;;8.60;2.40;;;10.60;99.90;;;;;;5037939;28;20041;-67
2022/12/31 06:23:59;;;;;;;6.30;2.30;;;10.70;99.90;;;;;;5052149;28;20048;-65
2022/12/31 06:26:26;;;;;;;6.32;2.63;;;10.60;99.90;;;;;;5067859;28;20044;-65
2022/12/31 06:28:52;;;;;;;7.22;2.38;;;10.60;99.90;;;;;;5053237;28;20401;-75
2022/12/31 06:31:18;;;;;;;8.60;2.70;;;10.60;99.90;;;;;;5056614;28;20526;-64
2022/12/31 06:33:45;;;;;;;5.35;1.90;;;10.60;99.90;;;;;;5051368;28;20049;-71
2022/12/31 06:36:13;;;;;;;5.13;2.00;;;10.50;99.90;;;;;;5050862;28;20084;-64
2022/12/31 06:38:40;;;;;;;6.78;2.00;;;10.50;99.90;;;;;;5057772;28;20064;-64
2022/12/31 06:41:09;;;;;;;4.93;1.60;;;10.50;99.90;;;;;;5045440;28;20057;-66
2022/12/31 06:43:35;;;;;;;8.20;1.70;;;10.50;99.90;;;;;;5048822;28;20056;-65
2022/12/31 06:46:04;;;;;;;4.80;1.60;;;10.50;99.90;;;;;;5051787;28;20110;-64
2022/12/31 06:48:30;;;;;;;3.85;1.50;;;10.40;99.90;;;;;;5060575;28;20525;-67
2022/12/31 06:51:01;;;;;;;3.90;1.30;;;10.40;99.90;;;;;;5050983;28;20526;-76
2022/12/31 06:53:27;;;;;;;4.72;1.85;;;10.40;99.90;;;;;;5052185;28;20129;-65
2022/12/31 06:55:53;;;;;;;4.22;1.65;;;10.30;99.90;;;;;;5051120;28;20080;-65
2022/12/31 06:58:19;;;;;;;4.10;1.65;;;10.30;99.90;;;;;;5057107;28;20052;-65
2022/12/31 07:01:16;;;;;;;4.43;1.55;;;10.30;99.90;;;;;;5053815;28;20445;-65
2022/12/31 07:04:15;;;;;;;5.20;1.55;;;10.20;99.90;;;;;;5027680;28;20442;-64
2022/12/31 07:06:57;;;;;;;7.18;1.90;;;10.30;99.90;;;;;;5052087;28;20383;-64
2022/12/31 07:09:36;;;;;;;3.97;1.48;;;10.20;99.90;;;;;;5056832;28;20037;-65
2022/12/31 07:12:10;;;;;;;3.08;1.55;;;10.30;99.90;;;;;;5050832;28;20044;-67
2022/12/31 07:14:53;;;;;;;7.32;1.98;;;10.30;99.90;;;;;;5051502;28;20071;-67
2022/12/31 07:17:37;;;;;;;9.10;2.20;;;10.10;99.90;;;;;;5078133;28;20050;-64
2022/12/31 07:20:09;;;;;;;3.70;2.35;;;10.20;99.90;;;;;;5050935;28;20109;-67
2022/12/31 07:22:35;;;;;;;6.40;3.70;;;10.20;99.90;;;;;;5050038;28;20392;-66
2022/12/31 07:25:01;;;;;;;6.47;3.45;;;10.20;99.90;;;;;;5050609;28;20044;-75
2022/12/31 07:27:33;;;;;;;7.80;3.80;;;10.20;99.90;;;;;;5051627;28;20482;-66
2022/12/31 07:30:10;;;;;;;6.40;3.95;;;10.30;99.90;;;;;;5055666;28;20642;-66
2022/12/31 07:33:00;;;;;;;5.25;3.67;;;10.30;99.90;;;;;;5051194;28;20525;-65
2022/12/31 07:35:57;;;;;;;5.28;3.45;;;10.40;99.90;;;;;;5049240;28;20072;-66
2022/12/31 07:38:39;;;;;;;6.00;3.47;;;10.40;99.90;;;;;;5049183;28;20160;-65
2022/12/31 07:41:36;;;;;;;5.20;3.70;;;10.40;99.90;;;;;;5051668;28;20764;-66
2022/12/31 07:44:20;;;;;;;5.32;3.17;;;10.40;99.90;;;;;;5041529;28;20055;-71
2022/12/31 07:46:54;;;;;;;4.18;3.05;;;10.40;99.90;;;;;;5051130;28;20115;-66
2022/12/31 07:49:20;;;;;;;5.30;3.25;;;10.40;99.90;;;;;;5050820;28;20503;-65
2022/12/31 07:51:46;;;;;;;5.28;3.13;;;10.30;99.90;;;;;;5063765;28;20049;-74
2022/12/31 07:54:12;;;;;;;5.00;2.75;;;10.40;99.90;;;;;;5049183;28;20040;-64
2022/12/31 07:56:38;;;;;;;5.18;3.20;;;10.40;99.90;;;;;;5049235;28;20080;-64
2022/12/31 07:59:22;;;;;;;5.45;3.13;;;10.30;99.90;;;;;;5050793;28;20040;-66
2022/12/31 08:01:58;;;;;;;4.80;2.90;;;10.40;99.90;;;;;;5050400;28;20037;-64
2022/12/31 08:04:52;;;;;;;4.25;2.83;;;10.30;99.90;;;;;;5038003;28;20068;-65
2022/12/31 08:07:28;;;;;;;3.90;2.60;;;10.40;99.90;;;;;;5048938;28;20124;-65
2022/12/31 08:10:02;;;;;;;3.53;2.55;;;10.30;99.90;;;;;;5051008;28;20112;-64
2022/12/31 08:12:34;;;;;;;4.97;2.88;;;10.30;99.90;;;;;;5060657;28;20098;-66
2022/12/31 08:15:00;;;;;;;5.15;3.03;;;10.40;99.90;;;;;;5050573;28;20049;-64
2022/12/31 08:17:26;;;;;;;6.43;3.58;;;10.30;99.90;;;;;;5048046;28;20152;-65
2022/12/31 08:19:52;;;;;;;4.30;2.85;;;10.40;99.90;;;;;;5050289;28;20500;-65
2022/12/31 08:22:24;;;;;;;4.65;2.90;;;10.30;99.90;;;;;;5047813;28;20056;-66
2022/12/31 08:25:16;;;;;;;5.10;2.90;;;10.40;99.90;;;;;;5049966;28;20510;-64
2022/12/31 08:27:42;;;;;;;4.75;2.85;;;10.50;99.90;;;;;;5040992;28;20072;-65
2022/12/31 08:30:09;;;;;;;3.53;2.30;;;10.50;99.90;;;;;;5043059;28;20049;-65
2022/12/31 08:32:43;;;;;;;4.00;2.30;;;10.40;99.90;;;;;;5069898;28;20080;-67
2022/12/31 08:35:21;;;;;;;;;;;10.50;99.90;;;;;;5048561;28;20044;-75
2022/12/31 08:37:59;;;;;;;4.03;2.53;;;10.50;99.90;;;;;;5048770;28;19991;-66
2022/12/31 08:40:37;;;;;;;4.63;2.30;;;10.50;99.90;;;;;;5034320;28;20038;-64
2022/12/31 08:43:49;;;;;;;4.95;2.10;;;10.60;99.90;;;;;;5045488;28;20053;-64
2022/12/31 08:46:46;;;;;;;3.25;1.80;;;10.60;99.90;;;;;;5050824;28;20144;-64
2022/12/31 08:49:13;;;;;;;3.15;2.00;;;10.50;99.90;;;;;;5033487;28;20132;-73
2022/12/31 08:51:40;;;;;;;1.65;1.13;;;10.50;99.90;;;;;;5038770;28;20380;-64
2022/12/31 08:54:08;;;;;;;3.20;1.70;;;10.60;99.90;;;;;;5034446;28;20045;-66
2022/12/31 08:56:56;;;;;;;3.03;1.98;;;10.60;99.90;;;;;;5039630;28;20815;-65
2022/12/31 08:59:24;;;;;;;3.08;1.98;;;10.70;99.90;;;;;;5073145;28;20103;-64
2022/12/31 09:01:53;;;;;;;3.38;2.22;;;10.70;99.90;;;;;;5039729;28;20752;-64
2022/12/31 09:04:39;;;;;;;3.55;2.42;;;10.70;99.90;;;;;;5045148;28;20053;-64
2022/12/31 09:07:08;;;;;;;4.15;2.58;;;10.70;99.90;;;;;;5051442;28;20055;-65
2022/12/31 09:10:04;;;;;;;3.50;2.75;;;10.80;99.90;;;;;;5046505;28;20041;-64
2022/12/31 09:13:08;;;;;;;7.28;5.90;;;10.90;99.90;;;;;;5051059;28;20051;-65
2022/12/31 09:16:12;;;;;;;3.08;2.35;;;11.00;99.90;;;;;;5079054;28;20045;-64
2022/12/31 09:18:40;;;;;;;5.30;4.70;;;11.10;99.90;;;;;;5055370;28;20076;-64
2022/12/31 09:21:09;;;;;;;5.55;3.60;;;11.10;99.90;;;;;;5046849;28;20045;-64
2022/12/31 09:23:35;;;;;;;43.70;37.40;;;11.20;99.90;;;;;;5057377;28;20045;-64
2022/12/31 09:26:20;;;;;;;21.85;14.82;;;11.30;99.90;;;;;;5063264;28;20068;-65
2022/12/31 09:28:59;;;;;;;92.38;83.22;;;11.40;99.90;;;;;;5052251;28;20032;-64
2022/12/31 09:32:02;;;;;;;4.53;2.70;;;11.40;99.90;;;;;;5047162;28;20041;-64
2022/12/31 09:34:48;;;;;;;5.07;3.05;;;11.50;99.90;;;;;;5044314;28;20181;-66
2022/12/31 09:37:28;;;;;;;9.95;6.95;;;11.50;99.90;;;;;;5048635;28;20047;-65
2022/12/31 09:40:00;;;;;;;48.33;37.58;;;11.50;99.90;;;;;;5064685;28;20047;-64
2022/12/31 09:42:40;;;;;;;52.80;44.13;;;11.60;99.90;;;;;;5054857;28;20424;-64
2022/12/31 09:45:22;;;;;;;11.45;8.52;;;11.60;99.90;;;;;;5046205;28;20525;-64
2022/12/31 09:48:11;;;;;;;6.80;3.58;;;11.60;99.90;;;;;;5080376;28;20053;-64
2022/12/31 09:51:08;;;;;;;5.65;3.05;;;11.70;99.90;;;;;;5040559;28;20161;-64
2022/12/31 09:53:59;;;;;;;25.23;21.40;;;11.80;99.90;;;;;;5054971;28;20123;-65
2022/12/31 09:56:34;;;;;;;17.45;14.48;;;11.80;99.90;;;;;;5060032;28;20547;-63
2022/12/31 09:59:00;;;;;;;13.63;9.90;;;11.90;99.90;;;;;;5050365;28;20458;-64
2022/12/31 10:01:43;;;;;;;5.15;2.70;;;11.90;99.90;;;;;;5061896;28;20049;-66
2022/12/31 10:04:33;;;;;;;4.47;2.47;;;12.00;99.90;;;;;;5044140;28;20049;-65
2022/12/31 10:07:35;;;;;;;3.40;2.00;;;12.00;99.90;;;;;;5055127;28;20040;-65
2022/12/31 10:10:24;;;;;;;8.00;2.15;;;12.10;99.90;;;;;;5040390;28;20458;-66
2022/12/31 10:12:50;;;;;;;5.45;1.98;;;12.20;99.90;;;;;;5051862;28;20478;-65
2022/12/31 10:15:43;;;;;;;6.22;1.95;;;12.20;99.90;;;;;;5052428;28;20060;-66
2022/12/31 10:18:42;;;;;;;3.38;1.50;;;12.30;99.90;;;;;;5045326;28;20060;-67
2022/12/31 10:21:18;;;;;;;5.50;1.65;;;12.20;99.90;;;;;;5050857;28;20060;-69
2022/12/31 10:23:51;;;;;;;4.38;1.77;;;12.30;99.90;;;;;;5031075;28;20061;-66
2022/12/31 10:26:35;;;;;;;8.38;2.15;;;12.50;99.90;;;;;;5047027;28;20548;-67
2022/12/31 10:29:27;;;;;;;6.57;2.00;;;12.50;99.90;;;;;;5049464;28;20452;-65
2022/12/31 10:32:20;;;;;;;6.50;1.60;;;12.50;99.90;;;;;;5046310;28;20036;-67
2022/12/31 10:34:53;;;;;;;5.50;1.95;;;12.60;99.90;;;;;;5042313;28;20601;-65
2022/12/31 10:37:51;;;;;;;7.28;1.90;;;12.60;99.90;;;;;;5055080;28;20508;-67
2022/12/31 10:40:46;;;;;;;8.90;2.40;;;12.60;99.90;;;;;;5046968;28;20059;-66
2022/12/31 10:43:48;;;;;;;8.13;2.08;;;12.70;99.90;;;;;;5049422;28;20045;-65
2022/12/31 10:46:40;;;;;;;16.02;10.45;;;12.80;99.90;;;;;;5050483;28;20048;-66
2022/12/31 10:49:30;;;;;;;8.00;1.90;;;12.80;99.90;;;;;;5053510;28;20630;-64
2022/12/31 10:52:13;;;;;;;13.15;2.80;;;12.80;99.90;;;;;;5049816;28;20095;-64
2022/12/31 10:55:10;;;;;;;9.43;2.20;;;12.90;99.90;;;;;;5049615;28;20072;-66
2022/12/31 10:57:42;;;;;;;11.77;3.00;;;12.90;99.90;;;;;;5063419;28;20056;-64
2022/12/31 11:00:13;;;;;;;8.27;2.47;;;12.90;99.90;;;;;;5049487;28;20040;-65
2022/12/31 11:02:39;;;;;;;7.30;2.15;;;13.00;99.90;;;;;;5049205;28;20149;-66
2022/12/31 11:05:26;;;;;;;6.50;2.33;;;12.90;99.90;;;;;;5041466;28;20124;-65
2022/12/31 11:08:25;;;;;;;12.13;2.35;;;13.00;99.90;;;;;;5049591;28;20128;-68
2022/12/31 11:11:12;;;;;;;12.10;2.15;;;13.00;99.90;;;;;;5049280;28;20045;-66
2022/12/31 11:13:46;;;;;;;28.50;20.10;;;13.00;99.90;;;;;;5049256;28;20506;-66
2022/12/31 11:16:27;;;;;;;11.65;3.15;;;13.00;99.90;;;;;;5046506;28;20048;-65
2022/12/31 11:19:19;;;;;;;11.55;2.22;;;13.00;99.90;;;;;;5046716;28;20041;-66
2022/12/31 11:22:24;;;;;;;8.13;2.13;;;13.10;99.90;;;;;;5038379;28;20052;-65
2022/12/31 11:25:11;;;;;;;12.02;3.05;;;13.10;99.90;;;;;;5034395;28;20052;-65
2022/12/31 11:27:55;;;;;;;14.27;3.15;;;13.10;99.90;;;;;;5041674;28;20148;-73
2022/12/31 11:30:46;;;;;;;7.47;2.13;;;13.10;99.90;;;;;;5036303;28;20045;-69
2022/12/31 11:33:12;;;;;;;18.55;9.02;;;13.20;99.90;;;;;;5042976;28;20140;-65
2022/12/31 11:35:49;;;;;;;12.10;3.30;;;13.20;99.90;;;;;;5038345;28;20129;-73
2022/12/31 11:38:26;;;;;;;13.52;3.30;;;13.20;99.90;;;;;;5045180;28;20457;-66
2022/12/31 11:41:27;;;;;;;11.40;3.00;;;13.20;99.90;;;;;;5044045;28;20053;-66
2022/12/31 11:44:27;;;;;;;12.52;3.15;;;13.30;99.90;;;;;;5047000;28;20499;-66
2022/12/31 11:47:17;;;;;;;13.63;2.97;;;13.30;99.90;;;;;;5047284;28;20045;-65
2022/12/31 11:49:58;;;;;;;13.93;2.65;;;13.30;99.90;;;;;;5052295;28;20477;-66
2022/12/31 11:52:41;;;;;;;9.07;2.80;;;13.30;99.90;;;;;;5033257;28;20095;-65
2022/12/31 11:55:37;;;;;;;9.43;2.30;;;13.30;99.90;;;;;;5079879;28;20056;-65
2022/12/31 11:58:12;;;;;;;11.10;2.45;;;13.30;99.90;;;;;;5040664;28;20425;-66
2022/12/31 12:00:42;;;;;;;6.93;2.47;;;13.30;99.90;;;;;;5045346;28;20116;-67
2022/12/31 12:03:10;;;;;;;10.45;3.17;;;13.30;99.90;;;;;;5039412;28;20140;-66
2022/12/31 12:05:37;;;;;;;12.00;2.83;;;13.20;99.90;;;;;;5037451;28;20067;-65
2022/12/31 12:08:03;;;;;;;10.68;2.80;;;13.30;99.90;;;;;;5033247;28;20041;-65
2022/12/31 12:10:29;;;;;;;7.20;2.40;;;13.20;99.90;;;;;;5044227;28;20042;-65
2022/12/31 12:12:57;;;;;;;8.38;2.47;;;13.20;99.90;;;;;;5035320;28;20107;-65
2022/12/31 12:15:27;;;;;;;5.97;2.42;;;13.30;99.90;;;;;;5045131;28;20148;-66
2022/12/31 12:17:56;;;;;;;7.70;2.38;;;13.30;99.90;;;;;;5041977;28;20081;-64
2022/12/31 12:20:35;;;;;;;8.55;2.47;;;13.30;99.90;;;;;;5050790;28;20037;-63
2022/12/31 12:23:12;;;;;;;10.57;2.90;;;13.40;99.90;;;;;;5047568;28;20075;-65
2022/12/31 12:25:40;;;;;;;6.25;2.20;;;13.30;99.90;;;;;;5043774;28;20053;-65
2022/12/31 12:28:43;;;;;;;13.07;7.18;;;13.30;99.90;;;;;;5048150;28;20132;-65
2022/12/31 12:31:22;;;;;;;16.80;9.88;;;13.20;99.90;;;;;;5045138;28;20104;-65
2022/12/31 12:33:50;;;;;;;14.05;4.75;;;13.20;99.90;;;;;;5046390;28;20040;-66
2022/12/31 12:36:18;;;;;;;11.40;3.70;;;13.20;99.90;;;;;;5046784;28;20174;-65
2022/12/31 12:38:44;;;;;;;12.20;3.50;;;13.20;99.90;;;;;;5046878;28;20072;-65
2022/12/31 12:41:24;;;;;;;15.93;3.70;;;13.20;99.90;;;;;;5039812;28;20128;-64
2022/12/31 12:44:00;;;;;;;10.80;3.47;;;13.20;99.90;;;;;;5045973;28;20393;-71
2022/12/31 12:46:43;;;;;;;10.25;2.95;;;13.30;99.90;;;;;;5044067;28;20067;-65
2022/12/31 12:49:24;;;;;;;12.68;3.67;;;13.20;99.90;;;;;;5056075;28;20089;-65
2022/12/31 12:52:14;;;;;;;14.43;4.03;;;13.30;99.90;;;;;;5048568;28;20051;-72
2022/12/31 12:55:24;;;;;;;10.98;4.00;;;13.20;99.90;;;;;;5048860;28;20052;-66
2022/12/31 12:58:12;;;;;;;13.95;3.35;;;13.30;99.90;;;;;;5051955;28;20498;-71
2022/12/31 13:01:03;;;;;;;8.70;2.90;;;13.20;99.90;;;;;;5051468;28;20037;-65
2022/12/31 13:03:53;;;;;;;11.43;3.35;;;13.20;99.90;;;;;;5046119;28;20049;-64
2022/12/31 13:06:38;;;;;;;13.18;3.92;;;13.20;99.90;;;;;;5051383;28;20488;-64
2022/12/31 13:09:18;;;;;;;10.13;3.25;;;13.20;99.90;;;;;;5047639;28;20045;-64
2022/12/31 13:12:00;;;;;;;10.70;3.67;;;13.20;99.90;;;;;;5052168;28;20482;-64
2022/12/31 13:14:50;;;;;;;14.65;4.43;;;13.20;99.90;;;;;;5050758;28;20231;-65
2022/12/31 13:17:48;;;;;;;17.45;5.60;;;13.20;99.90;;;;;;5050191;28;20775;-65
2022/12/31 13:20:18;;;;;;;14.20;3.90;;;13.30;99.90;;;;;;5054406;28;20289;-65
2022/12/31 13:22:58;;;;;;;11.77;3.50;;;13.20;99.90;;;;;;5075375;28;20394;-66
2022/12/31 13:25:29;;;;;;;12.40;3.47;;;13.30;99.90;;;;;;5046853;28;20143;-65
2022/12/31 13:28:01;;;;;;;12.68;3.30;;;13.20;99.90;;;;;;5044636;28;20388;-72